LSGE weather

Ecuvillens Airport
Canton of Fribourg, Switzerland

Public forecast

Using degrees Celsius for public forecast. Weather courtesy of forecast.io.

METAR (pilot weather report)

Closest report is Payerne Air Base, 8.5 nm (15.7 km) NW. Retrieved 2019/07/21 10:20 UTC (17 minutes ago):

LSMP 211020Z VRB04KT 9999 SCT043 27/17 Q1023 RMK BLU+

TAF (pilot weather forecast)

Closest forecast is Payerne Air Base, 8.5 nm (15.7 km) NW. Retrieved 2019/07/21 10:00 UTC (37 minutes ago):

TAF LSMP 210925Z 2110/2216 VRB03KT 9999 FEW050 BECMG 2114/2116 CAVOK